Cottonwood, Arizona
Current Conditions -  °F | °C
As of 3:55 PM on Saturday 25 Oct 2014 (Local Time) from KSEZ Reporting Station
Scattered Clouds Scattered Clouds  
Wind Chill: 79°   Ceiling: Unl
Heat Index: 79°   Visibility: 10mi
Dew Point: 43°   Wind: 12mph
Humidity: 28%   Direction: 180°S
Pressure: 30.16"   Gusts: 18mph
Location:  34.74°N, 112°W
Report Text: KSEZ 252255Z AUTO 18010G16KT 150V210 10SM SCT080 SCT090 26/06 A3016 RMK AO2
Loading
Personal Weather Stations






























Interactive Weather Map
Tropical Storm Tracking
New forecast layout! Learn more

10-Day Weather Forecast

Advertisements
Track Severe Weather on mobile